Louisburg, Minnesota
Current Conditions -  °F | °C
As of 6:13 AM on Thursday 29 Jan 2015 (Local Time) from KDXX Reporting Station
Overcast Overcast  
Wind Chill: 20°   Ceiling: 1700
Heat Index: 32°   Visibility: 10mi
Dew Point: 27°   Wind: 21mph
Humidity: 80%   Direction: 340°NNW
Pressure: 30.23"   Gusts: 36mph
Location:  44.9929°N, 96.1617°W
Report Text: KDXX 291213Z AUTO 34018G31KT 10SM OVC017 00/M03 A3023 RMK AO2
Loading
Personal Weather Stations






























Interactive Weather Map New forecast layout! Learn more

10-Day Weather Forecast

Advertisements
Track Severe Weather on mobile